Aérodrome :
LOGIN :

S'inscrire | Disclaimer

   EN    FR    IT 

 










Légende :    VFR   VFR Marginal   IFR   IFR Intensif   IFR Très Intensif
Visi : 
Plafond : 
>= 8 km
>= 3000ft
5 à 8 km
1000 à 3000 ft
1500m à 5 km
500 à 1000 ft
800 à 1500m
200 à 500 ft
< 800m
< 200 ft
Symboles :   Orages  Brouillard  Fortes neiges  Fortes précipitations  Vent > 20 kt
SIGMETs :   Divers  Orages  Givrage  Turbulence  Onde Orograph.  Cendres Volcan.






- Altitude de l'aérodrome : 25 ft
- Code IATA : QCY


EGXC - RAF Coningsby

DERNIER METAR :
  • 131050Z 23009KT 9999 FEW040 BKN075 BKN110 19/13 Q1021 NOSIG RMK BLU BLU

METARs EXPIRÉS :
  • 130950Z 23010KT 9999 -RA FEW040 SCT070 BKN090 18/11 Q1022 NOSIG RMK BLU BLU
  • 130850Z 25010KT CAVOK 18/11 Q1022 NOSIG RMK BLU BLU

TAF TAF EGXC
Valide du 13 à 09h jusqu'au 14 à 03h UTC


130757Z 1309/1403 24010KT 9999 BKN045
PROB40
TEMPO 1311/1320 5000 RA
TEMPO 1313/1322 BKN020
PROB30
TEMPO 1313/1321 SCT012



MET'MAP, la Météo Aéronautique d'un coup d'oeil ! - Copyright ORBIFLY Décembre 2007 - Disclaimer

ORBIFLY MET'MAP TEAM :

Programmation & Développement : Alexandra Zaïnal
Sur une idée originale de : Baudouin d'Aumeries
Assistance à la programmation : Marc-Olivier Méhu
Soutien technique & logistique : Manuel Goepfert

Contact : metmap@orbifly.com




SOURCES & CREDITS :

   NOAA